Time;durP1;ratioP1;P1;durP2;ratioP2;P2;SDS_P1;SDS_P2;PMS_P1;PMS_P2;Temp;Humidity;BMP_temperature;BMP_pressure;BME280_temperature;BME280_humidity;BME280_pressure;Samples;Min_cycle;Max_cycle;Signal;HPM_P1;HPM_P2
2022/06/12 00:00:31;;;;;;;8.88;5.53;;;;;;;15.56;100.00;92910.78;5172783;27;20419;-87
2022/06/12 00:02:59;;;;;;;8.23;5.97;;;;;;;15.57;100.00;92912.38;5172329;27;20137;-87
2022/06/12 00:05:29;;;;;;;9.65;5.82;;;;;;;15.68;100.00;92907.25;5172580;27;20046;-87
2022/06/12 00:07:56;;;;;;;10.45;6.22;;;;;;;15.55;100.00;92883.34;5171670;27;20473;-88
2022/06/12 00:10:24;;;;;;;8.02;5.63;;;;;;;15.66;100.00;92907.53;5173466;27;20083;-88
2022/06/12 00:12:51;;;;;;;8.43;5.57;;;;;;;15.60;100.00;92911.88;5173326;27;20038;-87
2022/06/12 00:15:21;;;;;;;9.80;6.30;;;;;;;15.49;100.00;92912.81;5173559;27;20061;-88
2022/06/12 00:17:51;;;;;;;9.65;6.28;;;;;;;15.36;100.00;92903.66;5173094;27;20561;-87
2022/06/12 00:20:19;;;;;;;9.10;5.80;;;;;;;15.26;100.00;92901.78;5172443;27;20045;-88
2022/06/12 00:22:47;;;;;;;8.80;6.10;;;;;;;15.07;100.00;92886.63;5173072;27;20050;-88
2022/06/12 00:25:17;;;;;;;6.85;5.95;;;;;;;15.02;100.00;92899.50;5173086;27;20497;-89
2022/06/12 00:27:48;;;;;;;7.32;6.22;;;;;;;14.88;100.00;92860.31;5173442;27;20042;-87
2022/06/12 00:30:19;;;;;;;12.30;6.68;;;;;;;14.99;100.00;92886.28;5171708;27;20053;-88
2022/06/12 00:32:49;;;;;;;9.30;6.90;;;;;;;14.97;100.00;92896.88;5173136;27;20038;-87
2022/06/12 00:35:40;;;;;;;9.50;6.65;;;;;;;14.80;100.00;92868.50;5171522;27;20138;-89
2022/06/12 00:38:11;;;;;;;7.55;6.00;;;;;;;14.92;100.00;92881.28;5171628;27;20047;-88
2022/06/12 00:40:40;;;;;;;8.48;6.50;;;;;;;14.83;100.00;92886.13;5172721;27;20467;-87
2022/06/12 00:43:37;;;;;;;7.30;6.15;;;;;;;14.73;100.00;92878.25;5172726;27;20046;-88
2022/06/12 00:46:08;;;;;;;8.00;6.72;;;;;;;14.76;100.00;92888.91;5172524;27;20050;-89
2022/06/12 00:48:48;;;;;;;;;;;;;;;;;;;;;
2022/06/12 00:51:39;;;;;;;9.55;6.28;;;;;;;14.41;100.00;92851.28;5167007;27;20045;-88
2022/06/12 00:54:09;;;;;;;9.13;6.75;;;;;;;14.62;100.00;92893.63;5171340;27;20046;-89
2022/06/12 01:07:39;;;;;;;8.07;6.88;;;;;;;13.99;100.00;92780.31;5038716;28;20151;-87
2022/06/12 01:10:20;;;;;;;8.63;7.05;;;;;;;14.07;100.00;92789.44;5166317;27;20087;-87
2022/06/12 01:13:49;;;;;;;;;;;;;;;;;;;;;
2022/06/12 01:23:42;;;;;;;7.63;6.63;;;;;;;14.58;100.00;92889.97;4987711;27;19921;-88
2022/06/12 01:26:43;;;;;;;10.73;6.70;;;;;;;14.54;100.00;92883.75;5170875;27;20050;-87
2022/06/12 01:29:28;;;;;;;9.02;6.57;;;;;;;14.29;100.00;92861.75;5171398;27;20042;-88
2022/06/12 01:32:04;;;;;;;10.73;7.43;;;;;;;14.47;100.00;92878.75;5170851;27;20056;-87
2022/06/12 01:34:48;;;;;;;;;;;;;;;;;;;;;
2022/06/12 01:37:26;;;;;;;8.80;7.20;;;;;;;14.61;100.00;92880.94;5162440;27;20407;-87
2022/06/12 01:40:19;;;;;;;;;;;;;;;;;;;;;
2022/06/12 01:45:48;;;;;;;8.85;7.45;;;;;;;14.79;100.00;92877.28;5170444;27;20077;-90
2022/06/12 01:48:29;;;;;;;9.10;6.97;;;;;;;14.81;100.00;92888.16;5170999;27;20044;-90
2022/06/12 01:51:21;;;;;;;8.65;6.70;;;;;;;14.82;100.00;92880.16;5170245;27;20137;-91
2022/06/12 01:57:54;;;;;;;;;;;;;;;;;;;;;
2022/06/12 02:07:47;;;;;;;8.05;6.70;;;;;;;14.27;100.00;92770.78;5169685;27;20121;-89
2022/06/12 02:10:46;;;;;;;8.25;7.03;;;;;;;14.24;100.00;92759.16;5171454;27;20555;-89
2022/06/12 02:13:37;;;;;;;;;;;;;;;;;;;;;
2022/06/12 02:16:49;;;;;;;9.25;7.30;;;;;;;14.25;100.00;92759.91;5159011;27;20044;-89
2022/06/12 02:19:40;;;;;;;9.52;7.35;;;;;;;14.19;100.00;92769.41;5168060;27;20049;-90
2022/06/12 02:31:29;;;;;;;9.85;7.35;;;;;;;15.28;100.00;92886.00;5165943;27;20039;-90
2022/06/12 02:34:21;;;;;;;16.13;13.23;;;;;;;14.67;100.00;92794.66;5169587;27;20046;-89
2022/06/12 02:37:27;;;;;;;9.10;8.13;;;;;;;14.41;100.00;92786.69;5167370;27;20476;-89
2022/06/12 02:40:24;;;;;;;8.27;6.82;;;;;;;14.64;100.00;92828.78;5168615;27;20144;-89
2022/06/12 02:43:22;;;;;;;8.65;5.85;;;;;;;14.80;100.00;92887.41;5169892;27;20046;-91
2022/06/12 02:49:15;;;;;;;8.57;6.43;;;;;;;14.73;100.00;92881.63;5169730;27;20121;-89
2022/06/12 02:52:14;;;;;;;8.75;6.45;;;;;;;14.36;100.00;92831.34;5171931;27;20386;-89
2022/06/12 02:54:52;;;;;;;8.07;6.80;;;;;;;14.53;100.00;92864.06;5169715;27;20046;-90
2022/06/12 02:57:31;;;;;;;8.50;6.78;;;;;;;14.60;100.00;92877.59;5168784;27;20512;-90
2022/06/12 03:00:10;;;;;;;8.70;7.10;;;;;;;14.37;100.00;92863.91;5170703;27;20046;-88
2022/06/12 03:02:43;;;;;;;8.65;6.85;;;;;;;14.52;100.00;92883.97;5173600;27;20458;-90
2022/06/12 03:05:17;;;;;;;8.93;7.50;;;;;;;14.53;100.00;92869.22;5174110;27;20137;-88
2022/06/12 03:08:21;;;;;;;9.23;7.80;;;;;;;14.48;100.00;92869.97;5174440;27;20081;-91
2022/06/12 03:11:11;;;;;;;11.30;7.25;;;;;;;13.83;100.00;92774.97;5174494;27;20515;-88
2022/06/12 03:13:59;;;;;;;9.68;7.25;;;;;;;14.26;100.00;92841.56;5142807;27;20039;-85
2022/06/12 03:16:44;;;;;;;9.48;7.53;;;;;;;13.76;100.00;92764.81;5173562;27;20051;-86
2022/06/12 03:19:19;;;;;;;9.17;8.10;;;;;;;13.80;100.00;92759.19;5174453;27;20041;-87
2022/06/12 03:22:14;;;;;;;8.57;7.25;;;;;;;14.59;100.00;92894.13;5174466;27;20054;-88
2022/06/12 03:25:08;;;;;;;9.68;8.18;;;;;;;13.67;100.00;92753.38;5172798;27;20081;-87
2022/06/12 03:28:06;;;;;;;9.23;7.95;;;;;;;14.16;100.00;92813.81;5129965;27;20087;-89
2022/06/12 03:34:23;;;;;;;;;;;;;;;;;;;;;
2022/06/12 03:39:57;;;;;;;10.80;8.40;;;;;;;15.13;100.00;92866.72;5125026;27;20140;-88
2022/06/12 03:42:36;;;;;;;9.70;7.78;;;;;;;15.05;100.00;92870.53;5127578;27;20047;-88
2022/06/12 03:45:08;;;;;;;10.05;8.10;;;;;;;15.17;100.00;92879.94;5125770;27;20084;-90
2022/06/12 03:47:44;;;;;;;9.85;8.05;;;;;;;15.15;100.00;92882.00;5130945;27;20539;-88
2022/06/12 03:50:18;;;;;;;10.43;8.38;;;;;;;15.17;100.00;92879.94;5130666;27;20047;-88
2022/06/12 03:52:55;;;;;;;11.18;8.73;;;;;;;14.95;100.00;92875.66;5131511;27;20051;-87
2022/06/12 03:58:15;;;;;;;11.70;8.23;;;;;;;15.15;100.00;92895.75;5128206;27;20043;-88
2022/06/12 04:00:45;;;;;;;11.88;8.70;;;;;;;15.17;100.00;92890.28;5128558;27;20390;-87
2022/06/12 04:03:17;;;;;;;10.30;8.43;;;;;;;15.19;100.00;92883.84;5128309;27;20055;-87
2022/06/12 04:05:51;;;;;;;11.30;8.85;;;;;;;15.43;100.00;92904.25;5125094;27;20047;-88
2022/06/12 04:08:22;;;;;;;10.65;8.05;;;;;;;15.49;100.00;92900.66;5127562;27;20055;-87
2022/06/12 04:11:05;;;;;;;;;;;;;;;;;;;;;
2022/06/12 04:13:32;;;;;;;10.23;7.60;;;;;;;15.51;100.00;92900.44;5123211;27;20043;-88
2022/06/12 04:16:04;;;;;;;8.77;7.45;;;;;;;15.49;100.00;92915.41;5126610;27;20462;-87
2022/06/12 04:18:33;;;;;;;11.68;8.73;;;;;;;15.30;100.00;92915.78;5121957;27;20048;-87
2022/06/12 04:21:02;;;;;;;9.43;8.32;;;;;;;15.17;100.00;92913.59;5126704;27;20074;-86
2022/06/12 04:23:41;;;;;;;10.10;8.27;;;;;;;15.34;100.00;92913.47;5127842;27;20043;-87
2022/06/12 04:26:18;;;;;;;23.80;14.32;;;;;;;15.31;100.00;92914.75;5149975;27;20400;-87
2022/06/12 04:28:46;;;;;;;13.05;10.20;;;;;;;15.32;100.00;92911.13;5172275;27;20556;-87
2022/06/12 04:31:15;;;;;;;10.02;8.48;;;;;;;15.35;100.00;92909.88;5173068;27;20091;-86
2022/06/12 04:34:00;;;;;;;10.63;8.95;;;;;;;15.41;100.00;92902.94;5173774;27;20420;-87
2022/06/12 04:36:28;;;;;;;11.38;8.38;;;;;;;15.59;100.00;92897.38;5169180;27;20381;-88
2022/06/12 04:38:55;;;;;;;8.88;7.32;;;;;;;15.67;100.00;92896.13;5173503;27;20042;-87
2022/06/12 04:41:30;;;;;;;10.88;8.23;;;;;;;15.92;100.00;92919.84;5173950;27;20134;-86
2022/06/12 04:43:57;;;;;;;10.43;7.93;;;;;;;15.99;100.00;92925.63;5164978;27;20050;-87
2022/06/12 04:46:26;;;;;;;9.98;8.05;;;;;;;16.05;100.00;92924.63;5173227;27;20400;-87
2022/06/12 04:48:58;;;;;;;10.38;7.72;;;;;;;16.16;100.00;92928.81;5170000;27;20043;-88
2022/06/12 04:51:27;;;;;;;8.13;6.75;;;;;;;16.25;100.00;92936.91;5171401;27;20034;-88
2022/06/12 04:53:54;;;;;;;11.80;7.72;;;;;;;16.21;100.00;92935.88;5172904;27;20077;-87
2022/06/12 04:56:26;;;;;;;9.68;7.50;;;;;;;16.30;100.00;92934.34;5172915;27;20050;-87
2022/06/12 04:59:03;;;;;;;;;;;;;;;;;;;;;
2022/06/12 05:01:35;;;;;;;10.55;7.85;;;;;;;16.29;100.00;92932.00;5170422;27;20042;-90
2022/06/12 05:04:05;;;;;;;10.52;7.57;;;;;;;16.45;100.00;92942.44;5162015;27;20057;-87
2022/06/12 05:06:33;;;;;;;11.57;7.93;;;;;;;16.47;100.00;92935.19;5172475;27;20401;-86
2022/06/12 05:09:01;;;;;;;8.88;6.53;;;;;;;16.42;100.00;92934.13;5171730;27;20047;-85
2022/06/12 05:11:37;;;;;;;10.65;6.93;;;;;;;16.54;100.00;92936.50;5171943;27;20086;-86
2022/06/12 05:14:04;;;;;;;9.73;7.25;;;;;;;16.53;100.00;92937.53;5170876;27;20034;-84
2022/06/12 05:16:34;;;;;;;8.55;6.85;;;;;;;16.60;100.00;92931.34;5172761;27;20072;-85
2022/06/12 05:19:02;;;;;;;9.43;7.18;;;;;;;16.59;100.00;92928.00;5172621;27;20488;-84
2022/06/12 05:21:30;;;;;;;9.25;7.15;;;;;;;16.63;100.00;92939.41;5170754;27;20453;-86
2022/06/12 05:23:58;;;;;;;8.07;6.65;;;;;;;16.52;100.00;92919.66;5171336;27;20091;-82
2022/06/12 05:26:33;;;;;;;9.30;7.00;;;;;;;16.62;100.00;92898.94;5170539;27;20491;-85
2022/06/12 05:29:01;;;;;;;9.45;7.15;;;;;;;16.76;100.00;92925.19;5166865;27;20046;-88
2022/06/12 05:31:27;;;;;;;8.75;6.57;;;;;;;16.97;100.00;92933.03;5172597;27;20073;-84
2022/06/12 05:33:54;;;;;;;8.27;6.30;;;;;;;16.96;100.00;92940.00;5172318;27;20054;-83
2022/06/12 05:36:27;;;;;;;8.18;6.15;;;;;;;16.74;100.00;92945.41;5170746;27;20145;-83
2022/06/12 05:38:54;;;;;;;9.35;6.93;;;;;;;16.77;100.00;92938.94;5171283;27;20393;-83
2022/06/12 05:41:24;;;;;;;8.07;6.38;;;;;;;16.52;100.00;92937.81;5170452;27;20472;-82
2022/06/12 05:43:52;;;;;;;7.05;5.93;;;;;;;16.43;100.00;92946.06;5172180;27;20058;-83
2022/06/12 05:46:18;;;;;;;8.88;6.57;;;;;;;16.65;100.00;92942.53;5172166;27;20050;-83
2022/06/12 05:48:47;;;;;;;8.18;5.78;;;;;;;16.51;100.00;92931.84;5172219;27;20054;-83
2022/06/12 05:51:16;;;;;;;8.60;6.25;;;;;;;16.59;100.00;92938.34;5172569;27;20042;-83
2022/06/12 05:53:43;;;;;;;8.27;6.13;;;;;;;16.58;100.00;92948.97;5172172;27;20099;-83
2022/06/12 05:56:14;;;;;;;10.07;5.72;;;;;;;16.52;100.00;92953.38;5172205;27;20484;-83
2022/06/12 05:58:41;;;;;;;9.32;6.38;;;;;;;16.65;100.00;92952.91;5168136;27;20603;-83
2022/06/12 06:01:12;;;;;;;6.50;5.80;;;;;;;16.49;100.00;92940.91;5172332;27;20049;-84
2022/06/12 06:03:39;;;;;;;7.75;6.18;;;;;;;16.59;100.00;92950.53;5169900;27;20038;-84
2022/06/12 06:06:10;;;;;;;7.63;5.93;;;;;;;16.60;100.00;92944.31;5172043;27;20045;-87
2022/06/12 06:08:37;;;;;;;11.48;9.65;;;;;;;16.81;100.00;92940.75;5171978;27;20484;-85
2022/06/12 06:11:04;;;;;;;7.82;6.15;;;;;;;16.76;100.00;92958.91;5171808;27;20046;-83
2022/06/12 06:13:30;;;;;;;8.00;6.70;;;;;;;16.73;100.00;92962.00;5171815;27;20038;-84
2022/06/12 06:15:57;;;;;;;8.98;6.80;;;;;;;16.60;100.00;92962.47;5172149;27;20435;-84
2022/06/12 06:18:26;;;;;;;7.78;6.20;;;;;;;16.52;100.00;92950.78;5172090;27;20045;-83
2022/06/12 06:20:53;;;;;;;7.25;5.90;;;;;;;16.59;100.00;92961.69;5172233;27;20054;-84
2022/06/12 06:23:22;;;;;;;7.85;5.70;;;;;;;16.47;100.00;92912.63;5171916;27;20053;-84
2022/06/12 06:25:48;;;;;;;7.80;5.80;;;;;;;16.91;100.00;92970.38;5169716;27;20054;-83
2022/06/12 06:28:16;;;;;;;8.10;6.10;;;;;;;16.98;100.00;92965.72;5171205;27;20046;-83
2022/06/12 06:30:43;;;;;;;7.70;6.13;;;;;;;16.89;100.00;92949.88;5171852;27;20042;-83
2022/06/12 06:33:11;;;;;;;8.70;6.30;;;;;;;17.09;100.00;92962.13;5171693;27;20050;-83
2022/06/12 06:35:40;;;;;;;8.63;5.57;;;;;;;17.30;100.00;92969.97;5173486;27;20579;-84
2022/06/12 06:38:07;;;;;;;6.72;5.63;;;;;;;17.33;100.00;92974.66;5175870;27;20063;-83
2022/06/12 06:40:35;;;;;;;8.90;5.55;;;;;;;17.19;100.00;92976.97;5175983;27;20129;-83
2022/06/12 06:43:02;;;;;;;6.72;5.25;;;;;;;17.30;100.00;92982.94;5173823;27;20030;-83
2022/06/12 06:48:28;;;;;;;8.10;5.53;;;;;;;17.11;100.00;92977.47;5174442;27;20045;-84
2022/06/12 06:50:57;;;;;;;33.92;29.17;;;;;;;16.93;100.00;92979.47;5174549;27;20125;-82
2022/06/12 06:53:24;;;;;;;70.93;59.15;;;;;;;16.97;100.00;92969.34;5175779;27;20487;-84
2022/06/12 06:55:51;;;;;;;8.77;7.82;;;;;;;17.14;100.00;92984.75;5173943;27;20042;-83
2022/06/12 06:58:25;;;;;;;17.85;15.02;;;;;;;16.88;100.00;92948.31;5174337;27;20038;-84
2022/06/12 07:00:52;;;;;;;9.95;8.38;;;;;;;17.11;100.00;92990.44;5173690;27;20411;-83
2022/06/12 07:03:19;;;;;;;14.55;10.82;;;;;;;17.13;100.00;92993.53;5171228;27;20046;-83
2022/06/12 07:05:48;;;;;;;40.50;30.67;;;;;;;17.16;100.00;92987.06;5175473;27;20042;-83
2022/06/12 07:08:17;;;;;;;21.33;18.80;;;;;;;17.08;100.00;92986.53;5175513;27;20042;-84
2022/06/12 07:10:45;;;;;;;21.27;19.10;;;;;;;17.13;100.00;92988.34;5175572;27;20042;-83
2022/06/12 07:13:30;;;;;;;9.05;6.40;;;;;;;17.11;100.00;92992.25;5175472;27;20396;-83
2022/06/12 07:15:57;;;;;;;8.55;7.07;;;;;;;17.11;100.00;92984.47;5173015;27;20049;-84
2022/06/12 07:18:24;;;;;;;9.10;6.60;;;;;;;17.04;100.00;92967.31;5175430;27;20046;-83
2022/06/12 07:20:54;;;;;;;9.05;6.15;;;;;;;17.05;100.00;92987.06;5175143;27;20038;-83
2022/06/12 07:23:24;;;;;;;6.65;5.18;;;;;;;17.23;100.00;93000.59;5174855;27;20046;-83
2022/06/12 07:25:53;;;;;;;9.32;5.38;;;;;;;17.10;100.00;92999.25;5175110;27;20065;-83
2022/06/12 07:28:20;;;;;;;7.55;5.88;;;;;;;17.07;100.00;93002.34;5174831;27;20410;-83
2022/06/12 07:30:50;;;;;;;6.40;5.40;;;;;;;17.13;100.00;93005.75;5168391;27;20041;-85
2022/06/12 07:33:18;;;;;;;7.35;5.60;;;;;;;17.15;100.00;92993.28;5167180;27;20047;-84
2022/06/12 07:35:46;;;;;;;7.25;5.25;;;;;;;17.39;100.00;93003.22;5167945;27;20050;-84
2022/06/12 07:38:17;;;;;;;7.18;5.43;;;;;;;17.21;100.00;92997.47;5167993;27;20054;-84
2022/06/12 07:40:53;;;;;;;7.65;5.93;;;;;;;17.40;100.00;93002.94;5172557;27;20407;-84
2022/06/12 07:43:22;;;;;;;8.50;6.35;;;;;;;17.62;100.00;93007.94;5173602;27;20508;-84
2022/06/12 07:45:51;;;;;;;7.78;5.97;;;;;;;17.53;100.00;93011.31;5170077;27;20050;-84
2022/06/12 07:48:18;;;;;;;6.95;5.60;;;;;;;17.70;100.00;93013.66;5173602;27;20493;-84
2022/06/12 07:50:47;;;;;;;7.53;6.03;;;;;;;17.74;100.00;93018.06;5173644;27;20058;-85
2022/06/12 07:53:16;;;;;;;6.18;5.47;;;;;;;17.62;100.00;93020.13;5174034;27;20046;-84
2022/06/12 07:55:45;;;;;;;7.45;4.97;;;;;;;17.70;100.00;93017.03;5174317;27;20042;-84
2022/06/12 07:58:11;;;;;;;7.70;5.15;;;;;;;17.80;100.00;93016.25;5173501;27;20064;-84
2022/06/12 08:00:40;;;;;;;7.03;5.93;;;;;;;17.72;100.00;93019.34;5174105;27;20092;-84
2022/06/12 08:03:07;;;;;;;7.63;6.00;;;;;;;17.72;100.00;93012.34;5174278;27;20134;-84
2022/06/12 08:05:35;;;;;;;9.38;5.80;;;;;;;17.63;100.00;93008.69;5169797;27;20487;-84
2022/06/12 08:08:02;;;;;;;6.60;5.30;;;;;;;17.63;100.00;93016.50;5174173;27;20050;-83
2022/06/12 08:10:29;;;;;;;7.60;4.40;;;;;;;17.52;100.00;93014.91;5173302;27;20041;-84
2022/06/12 08:12:57;;;;;;;7.75;5.75;;;;;;;17.54;100.00;93015.44;5174228;27;20435;-85
2022/06/12 08:15:28;;;;;;;6.65;5.53;;;;;;;17.70;100.00;93014.44;5174184;27;20046;-83
2022/06/12 08:17:57;;;;;;;6.97;4.90;;;;;;;17.59;100.00;93018.81;5173120;27;20058;-83
2022/06/12 08:20:24;;;;;;;9.27;6.47;;;;;;;17.69;100.00;93006.91;5173764;27;20054;-83
2022/06/12 08:22:51;;;;;;;12.00;6.95;;;;;;;17.47;100.00;93011.28;5174023;27;20046;-82
2022/06/12 08:25:18;;;;;;;8.65;6.60;;;;;;;17.36;100.00;93012.31;5172737;27;20053;-82
2022/06/12 08:27:45;;;;;;;9.73;6.93;;;;;;;17.36;100.00;93007.13;5173597;27;20661;-84
2022/06/12 08:30:14;;;;;;;10.80;8.02;;;;;;;17.22;100.00;92973.09;5174022;27;20053;-83
2022/06/12 08:32:42;;;;;;;10.23;6.70;;;;;;;17.62;100.00;93005.34;5173480;27;20042;-84
2022/06/12 08:35:15;;;;;;;9.90;6.60;;;;;;;17.76;100.00;93013.41;5173689;27;20097;-85
2022/06/12 08:37:47;;;;;;;11.75;6.93;;;;;;;17.83;100.00;92997.53;5172284;27;20043;-86
2022/06/12 08:40:21;;;;;;;10.77;7.18;;;;;;;17.98;100.00;93007.16;5173652;27;20038;-87
2022/06/12 08:42:56;;;;;;;13.48;7.60;;;;;;;17.86;100.00;93006.63;5173259;27;20046;-87
2022/06/12 08:45:28;;;;;;;11.45;7.25;;;;;;;17.84;100.00;93012.09;5169502;27;20042;-86
2022/06/12 08:48:04;;;;;;;9.63;7.20;;;;;;;17.57;100.00;92973.38;5173119;27;20045;-86
2022/06/12 08:50:44;;;;;;;12.80;7.38;;;;;;;17.65;100.00;93016.22;5174768;27;20046;-84
2022/06/12 08:53:18;;;;;;;14.02;7.90;;;;;;;17.40;100.00;92969.19;5173115;27;20043;-87
2022/06/12 08:55:51;;;;;;;12.98;7.90;;;;;;;17.46;100.00;93001.16;5173515;27;20042;-88
2022/06/12 08:58:23;;;;;;;13.65;8.07;;;;;;;17.57;100.00;93012.31;5171398;27;20090;-88
2022/06/12 09:00:58;;;;;;;12.10;7.55;;;;;;;17.52;100.00;93002.72;5172419;27;20046;-88
2022/06/12 09:03:28;;;;;;;14.25;7.88;;;;;;;17.80;100.00;93018.06;5173028;27;20050;-89
2022/06/12 09:06:06;;;;;;;11.65;8.13;;;;;;;18.02;100.00;93007.41;5173021;27;20095;-88
2022/06/12 09:08:42;;;;;;;10.88;7.47;;;;;;;18.13;100.00;92998.59;5174371;27;20057;-88
2022/06/12 09:11:15;;;;;;;;;;;;;;;18.45;100.00;93019.34;5173490;27;20048;-91
2022/06/12 09:13:55;;;;;;;10.20;6.53;;;;;;;18.57;100.00;93019.84;5172796;27;19918;-88
2022/06/12 09:16:41;;;;;;;;;;;;;;;;;;;;;
2022/06/12 09:19:23;;;;;;;8.68;6.13;;;;;;;18.61;100.00;93025.31;5172210;27;20046;-89
2022/06/12 09:22:04;;;;;;;9.90;6.78;;;;;;;18.03;100.00;92957.78;5173794;27;20537;-89
2022/06/12 09:24:46;;;;;;;9.10;6.57;;;;;;;18.56;100.00;93024.28;5173144;27;20038;-89
2022/06/12 09:27:23;;;;;;;11.10;6.68;;;;;;;18.55;100.00;93024.53;5171406;27;20050;-89
2022/06/12 09:29:59;;;;;;;9.55;7.35;;;;;;;18.65;100.00;93015.94;5172720;27;20050;-88
2022/06/12 09:32:54;;;;;;;;;;;;;;;;;;;;;
2022/06/12 09:35:28;;;;;;;;;;;;;;;18.62;100.00;93032.84;5162496;27;20050;-88
2022/06/12 09:38:23;;;;;;;8.73;6.10;;;;;;;18.47;100.00;93030.28;5170603;27;19930;-85
2022/06/12 09:41:09;;;;;;;10.95;7.68;;;;;;;17.93;100.00;92942.22;5171930;27;20050;-87
2022/06/12 09:43:47;;;;;;;13.63;7.78;;;;;;;18.27;100.00;93027.44;5171795;27;20034;-86
2022/06/12 09:46:31;;;;;;;7.75;6.28;;;;;;;18.25;100.00;93028.75;5170606;27;20130;-85
2022/06/12 09:49:14;;;;;;;8.57;6.50;;;;;;;17.81;100.00;93014.44;5171781;27;20049;-88
2022/06/12 09:52:08;;;;;;;10.27;5.88;;;;;;;18.01;100.00;93026.66;5168794;27;20037;-90
2022/06/12 09:54:56;;;;;;;;;;;;;;;;;;;;;
2022/06/12 09:57:43;;;;;;;9.10;6.40;;;;;;;18.22;100.00;93021.47;5165138;27;20038;-88
2022/06/12 10:00:20;;;;;;;7.40;6.00;;;;;;;18.50;100.00;93027.94;5169317;27;20034;-90
2022/06/12 10:03:00;;;;;;;9.57;6.70;;;;;;;18.46;100.00;93029.50;5171258;27;20038;-88
2022/06/12 10:05:38;;;;;;;9.10;5.88;;;;;;;18.61;100.00;93031.28;5170717;27;20038;-88
2022/06/12 10:08:11;;;;;;;9.25;6.15;;;;;;;18.64;100.00;93014.34;5171731;27;20124;-87
2022/06/12 10:10:44;;;;;;;9.45;6.10;;;;;;;18.73;100.00;93010.19;5171402;27;20050;-89
2022/06/12 10:13:22;;;;;;;9.65;6.70;;;;;;;18.52;100.00;93012.06;5170162;27;20477;-87
2022/06/12 10:15:53;;;;;;;6.47;5.45;;;;;;;18.61;100.00;93023.47;5170907;27;20445;-87
2022/06/12 10:18:32;;;;;;;7.85;6.10;;;;;;;18.63;100.00;93021.41;5171661;27;20465;-88
2022/06/12 10:21:05;;;;;;;7.60;5.70;;;;;;;18.51;100.00;93026.88;5170284;27;20404;-87
2022/06/12 10:23:33;;;;;;;6.50;5.35;;;;;;;18.59;100.00;93022.19;5170210;27;20058;-89
2022/06/12 10:26:24;;;;;;;7.47;6.25;;;;;;;18.77;100.00;93020.84;5169549;27;20499;-90
2022/06/12 10:29:04;;;;;;;8.88;5.88;;;;;;;18.61;100.00;93009.69;5170694;27;20046;-87
2022/06/12 10:31:36;;;;;;;7.53;5.60;;;;;;;18.47;100.00;92992.03;5170005;27;20065;-88
2022/06/12 10:34:16;;;;;;;8.23;5.97;;;;;;;18.75;100.00;93017.72;5170357;27;20429;-88
2022/06/12 10:36:48;;;;;;;8.70;5.53;;;;;;;18.66;100.00;93009.69;5169769;27;20034;-88
2022/06/12 10:39:21;;;;;;;7.28;5.30;;;;;;;17.80;100.00;92924.53;5169780;27;20042;-87
2022/06/12 10:41:52;;;;;;;8.30;5.75;;;;;;;18.23;100.00;93010.03;5170259;27;20073;-86
2022/06/12 10:44:39;;;;;;;7.28;5.40;;;;;;;18.21;100.00;93015.50;5167841;27;20057;-90
2022/06/12 10:47:20;;;;;;;7.97;5.55;;;;;;;18.04;100.00;93000.13;5170490;27;20129;-87
2022/06/12 10:49:47;;;;;;;7.35;5.07;;;;;;;18.18;100.00;93015.25;5171099;27;20138;-86
2022/06/12 10:52:22;;;;;;;7.07;5.25;;;;;;;18.18;100.00;93023.03;5171420;27;20049;-86
2022/06/12 10:54:52;;;;;;;6.37;4.80;;;;;;;18.17;100.00;93022.25;5169847;27;20066;-87
2022/06/12 10:57:38;;;;;;;7.68;5.25;;;;;;;18.41;100.00;93019.88;5169737;27;20038;-87
2022/06/12 11:00:11;;;;;;;6.20;5.07;;;;;;;18.73;100.00;93012.00;5170112;27;20049;-89
2022/06/12 11:02:57;;;;;;;7.65;5.75;;;;;;;18.68;100.00;93015.41;5170025;27;20500;-88
2022/06/12 11:05:56;;;;;;;8.43;6.00;;;;;;;19.03;100.00;93007.72;5170605;27;20046;-87
2022/06/12 11:08:59;;;;;;;10.02;5.45;;;;;;;19.10;100.00;93013.44;5165787;27;20400;-87
2022/06/12 11:11:34;;;;;;;11.43;6.60;;;;;;;19.46;100.00;93012.50;5170506;27;20034;-87
2022/06/12 11:14:14;;;;;;;5.75;4.75;;;;;;;19.65;100.00;93015.25;5171255;27;20385;-84
2022/06/12 11:16:57;;;;;;;6.50;4.97;;;;;;;19.59;100.00;93021.53;5170522;27;20038;-85
2022/06/12 11:19:39;;;;;;;6.53;4.35;;;;;;;19.68;100.00;93029.56;5169903;27;20030;-86
2022/06/12 11:22:41;;;;;;;8.05;5.00;;;;;;;19.55;100.00;93016.09;5172330;27;20046;-85
2022/06/12 11:25:36;;;;;;;8.45;5.15;;;;;;;19.96;100.00;93015.06;5173452;27;20049;-86
2022/06/12 11:28:18;;;;;;;8.10;5.00;;;;;;;19.87;100.00;93009.59;5174469;27;20038;-84
2022/06/12 11:30:52;;;;;;;8.90;4.10;;;;;;;19.70;100.00;93017.81;5174428;27;20034;-83
2022/06/12 11:33:41;;;;;;;4.72;3.50;;;;;;;19.22;100.00;93008.69;5174773;27;20437;-87
2022/06/12 11:36:15;;;;;;;7.05;3.67;;;;;;;19.55;100.00;93031.72;5172731;27;20433;-83
2022/06/12 11:38:56;;;;;;;4.82;3.58;;;;;;;19.53;100.00;93041.63;5173630;27;20095;-84
2022/06/12 11:41:40;;;;;;;6.07;4.53;;;;;;;19.65;100.00;93038.69;5174895;27;20042;-84
2022/06/12 11:44:21;;;;;;;8.13;5.78;;;;;;;19.83;100.00;93037.28;5174607;27;20041;-86
2022/06/12 11:46:58;;;;;;;6.55;4.18;;;;;;;19.67;100.00;93041.03;5173667;27;20499;-84
2022/06/12 11:49:42;;;;;;;6.30;3.90;;;;;;;19.59;100.00;93032.72;5172709;27;20049;-84
2022/06/12 11:52:31;;;;;;;5.10;3.80;;;;;;;19.74;100.00;93038.88;5173820;27;20090;-88
2022/06/12 11:55:10;;;;;;;4.82;3.17;;;;;;;20.09;100.00;93037.09;5172463;27;20503;-84
2022/06/12 11:57:54;;;;;;;5.22;3.50;;;;;;;20.29;100.00;93032.75;5172975;27;20629;-83
2022/06/12 12:00:28;;;;;;;4.47;3.53;;;;;;;20.65;100.00;93027.19;5167782;27;20536;-82
2022/06/12 12:03:06;;;;;;;6.18;3.95;;;;;;;21.09;100.00;93024.66;5174399;27;20050;-84
2022/06/12 12:05:46;;;;;;;8.70;3.97;;;;;;;20.81;100.00;93019.19;5172385;27;20503;-83
2022/06/12 12:08:28;;;;;;;7.60;3.70;;;;;;;20.85;100.00;93024.66;5173617;27;20137;-85
2022/06/12 12:11:01;;;;;;;5.38;3.72;;;;;;;20.94;100.00;93020.41;5173320;27;20158;-86
2022/06/12 12:13:34;;;;;;;6.95;3.60;;;;;;;20.80;100.00;93020.25;5173970;27;20446;-85
2022/06/12 12:16:08;;;;;;;7.35;3.85;;;;;;;20.56;100.00;93023.66;5170110;27;20050;-84
2022/06/12 12:18:42;;;;;;;18.77;9.43;;;;;;;20.23;100.00;92990.28;5163273;27;20042;-87
2022/06/12 12:21:14;;;;;;;13.07;6.88;;;;;;;20.44;100.00;93018.81;5167576;27;20046;-85
2022/06/12 12:23:46;;;;;;;9.45;4.30;;;;;;;19.98;100.00;93006.94;5170185;27;20034;-85
2022/06/12 12:26:21;;;;;;;5.60;3.88;;;;;;;20.30;100.00;93010.84;5170795;27;20058;-85
2022/06/12 12:28:53;;;;;;;6.38;4.03;;;;;;;20.43;100.00;92993.78;5173768;27;20125;-86
2022/06/12 12:31:20;;;;;;;5.85;4.25;;;;;;;20.54;100.00;92995.22;5173955;27;20045;-85
2022/06/12 12:33:49;;;;;;;6.13;4.68;;;;;;;20.55;100.00;92956.88;5173301;27;20046;-85
2022/06/12 12:41:53;;;;;;;6.47;4.53;;;;;;;20.52;100.00;92989.50;5173068;27;20041;-84
2022/06/12 12:44:32;;;;;;;6.97;4.70;;;;;;;20.51;100.00;92980.09;5173457;27;20488;-85
2022/06/12 12:47:01;;;;;;;6.13;4.60;;;;;;;20.35;100.00;93002.97;5171514;27;20084;-85
2022/06/12 12:49:30;;;;;;;9.68;4.97;;;;;;;20.25;100.00;92984.81;5171910;27;20139;-85
2022/06/12 12:52:14;;;;;;;8.63;4.88;;;;;;;20.37;100.00;92998.25;5170411;27;20042;-85
2022/06/12 12:54:49;;;;;;;8.30;5.03;;;;;;;19.85;100.00;93013.53;5172084;27;20050;-85
2022/06/12 12:57:18;;;;;;;8.80;4.50;;;;;;;19.84;100.00;92991.91;5172302;27;20042;-85
2022/06/12 12:59:49;;;;;;;8.57;5.45;;;;;;;19.51;100.00;92983.81;5169474;27;20042;-85
2022/06/12 13:02:23;;;;;;;6.15;4.60;;;;;;;19.57;100.00;92997.56;5171622;27;20069;-85
2022/06/12 13:04:51;;;;;;;6.35;4.15;;;;;;;19.68;100.00;93008.72;5171903;27;20050;-86
2022/06/12 13:07:40;;;;;;;7.80;5.03;;;;;;;19.57;100.00;93003.56;5172790;27;20043;-85
2022/06/12 13:10:32;;;;;;;10.80;6.78;;;;;;;19.77;100.00;92994.06;5172046;27;20038;-85
2022/06/12 13:13:34;;;;;;;6.80;4.05;;;;;;;20.01;100.00;92988.91;5153649;27;20038;-86
2022/06/12 13:16:09;;;;;;;7.05;4.22;;;;;;;20.12;100.00;92992.22;5155546;27;20034;-85
2022/06/12 13:19:07;;;;;;;;;;;;;;;;;;;;;
2022/06/12 13:21:44;;;;;;;7.03;5.22;;;;;;;20.45;100.00;92988.28;5170210;27;20050;-85